Time;durP1;ratioP1;P1;durP2;ratioP2;P2;SDS_P1;SDS_P2;PMS_P1;PMS_P2;Temp;Humidity;BMP_temperature;BMP_pressure;BME280_temperature;BME280_humidity;BME280_pressure;Samples;Min_cycle;Max_cycle;Signal;HPM_P1;HPM_P2
2022/07/02 00:00:36;;;;;;;2.03;1.20;;;23.00;58.40;;;;;;5034114;28;20034;-60
2022/07/02 00:03:01;;;;;;;2.58;0.82;;;23.10;58.50;;;;;;5032925;28;20053;-60
2022/07/02 00:05:27;;;;;;;2.10;0.80;;;23.00;58.50;;;;;;5032896;28;20117;-61
2022/07/02 00:07:52;;;;;;;1.80;0.65;;;23.00;58.50;;;;;;5032151;28;20383;-61
2022/07/02 00:10:19;;;;;;;2.88;0.90;;;23.00;58.60;;;;;;5031937;28;20046;-61
2022/07/02 00:12:44;;;;;;;2.42;0.70;;;23.00;58.60;;;;;;5033630;28;20096;-60
2022/07/02 00:15:10;;;;;;;3.40;1.10;;;23.00;58.70;;;;;;5032836;28;20037;-60
2022/07/02 00:17:37;;;;;;;1.27;0.75;;;23.00;58.60;;;;;;5032820;28;20045;-61
2022/07/02 00:20:04;;;;;;;1.63;0.85;;;23.00;58.70;;;;;;5032069;28;20050;-61
2022/07/02 00:22:29;;;;;;;2.67;1.00;;;23.00;58.70;;;;;;5032937;28;20055;-60
2022/07/02 00:24:55;;;;;;;2.30;0.98;;;23.00;58.70;;;;;;5032110;28;20492;-60
2022/07/02 00:27:20;;;;;;;1.88;0.90;;;23.00;58.80;;;;;;5033251;28;20080;-61
2022/07/02 00:29:51;;;;;;;2.08;0.80;;;23.00;58.90;;;;;;5032081;28;20045;-60
2022/07/02 00:32:17;;;;;;;2.58;0.95;;;23.00;58.90;;;;;;5032978;28;20505;-60
2022/07/02 00:34:44;;;;;;;2.60;0.90;;;23.00;58.90;;;;;;5032093;28;20072;-60
2022/07/02 00:37:10;;;;;;;1.25;0.70;;;23.00;59.00;;;;;;5032344;28;20057;-60
2022/07/02 00:39:36;;;;;;;2.33;0.93;;;23.00;59.00;;;;;;5032227;28;20057;-60
2022/07/02 00:42:03;;;;;;;2.80;0.70;;;23.00;59.00;;;;;;5032497;28;20095;-60
2022/07/02 00:44:29;;;;;;;2.60;0.70;;;23.00;59.00;;;;;;5032245;28;20048;-60
2022/07/02 00:46:55;;;;;;;2.58;0.90;;;23.00;59.10;;;;;;5032889;28;20124;-60
2022/07/02 00:49:21;;;;;;;2.40;0.88;;;22.90;59.00;;;;;;5032160;28;20045;-60
2022/07/02 00:51:46;;;;;;;0.90;0.70;;;23.00;59.20;;;;;;5032247;28;20037;-60
2022/07/02 00:54:12;;;;;;;2.47;0.90;;;22.90;59.10;;;;;;5032774;28;20132;-60
2022/07/02 00:56:37;;;;;;;1.60;0.82;;;22.90;59.10;;;;;;5033306;28;20052;-60
2022/07/02 00:59:03;;;;;;;1.55;0.80;;;22.90;59.10;;;;;;5031922;28;20037;-60
2022/07/02 01:01:29;;;;;;;2.25;0.80;;;22.90;59.10;;;;;;5032995;28;20047;-60
2022/07/02 01:03:55;;;;;;;1.90;0.80;;;22.90;59.20;;;;;;5032664;28;20513;-60
2022/07/02 01:06:20;;;;;;;1.35;0.70;;;22.90;59.20;;;;;;5032216;28;20438;-61
2022/07/02 01:11:30;;;;;;;2.72;0.95;;;22.90;59.30;;;;;;5030847;28;20037;-61
2022/07/02 01:13:56;;;;;;;1.52;0.60;;;22.90;59.40;;;;;;5031235;28;20073;-61
2022/07/02 01:16:22;;;;;;;1.60;0.70;;;22.90;59.40;;;;;;5031319;28;20122;-61
2022/07/02 01:18:47;;;;;;;1.38;0.55;;;22.90;59.40;;;;;;5031471;28;20071;-61
2022/07/02 01:21:13;;;;;;;2.75;0.90;;;22.80;59.40;;;;;;5064130;28;20038;-61
2022/07/02 01:23:38;;;;;;;1.45;0.60;;;22.80;59.50;;;;;;5032603;28;20054;-61
2022/07/02 01:26:04;;;;;;;2.78;0.70;;;22.80;59.50;;;;;;5031409;28;20537;-61
2022/07/02 01:28:30;;;;;;;3.47;0.80;;;22.80;59.50;;;;;;5032631;28;20049;-61
2022/07/02 01:30:56;;;;;;;1.17;0.60;;;22.80;59.50;;;;;;5032418;28;20044;-61
2022/07/02 01:33:21;;;;;;;1.98;0.80;;;22.80;59.50;;;;;;5032045;28;20042;-61
2022/07/02 01:35:47;;;;;;;1.85;0.80;;;22.80;59.50;;;;;;5032286;28;20038;-61
2022/07/02 01:38:12;;;;;;;1.27;0.80;;;22.80;59.50;;;;;;5032706;28;20045;-61
2022/07/02 01:40:38;;;;;;;1.80;0.70;;;22.80;59.60;;;;;;5031952;28;20054;-61
2022/07/02 01:43:03;;;;;;;2.05;0.63;;;22.80;59.60;;;;;;5032223;28;20041;-61
2022/07/02 01:45:29;;;;;;;1.52;0.70;;;22.80;59.50;;;;;;5032598;28;20053;-61
2022/07/02 01:47:54;;;;;;;2.63;0.93;;;22.80;59.50;;;;;;5031433;28;20041;-61
2022/07/02 01:50:20;;;;;;;1.20;0.70;;;22.80;59.60;;;;;;5032461;28;20045;-61
2022/07/02 01:52:46;;;;;;;0.85;0.60;;;22.80;59.60;;;;;;5031712;28;20132;-61
2022/07/02 01:55:11;;;;;;;2.30;0.65;;;22.80;59.60;;;;;;5031678;28;20037;-61
2022/07/02 01:57:37;;;;;;;1.70;0.68;;;22.80;59.70;;;;;;5032364;28;20088;-61
2022/07/02 02:00:07;;;;;;;1.02;0.60;;;22.80;59.70;;;;;;5030253;28;20045;-61
2022/07/02 02:02:32;;;;;;;1.80;0.80;;;22.80;59.70;;;;;;5031589;28;20046;-61
2022/07/02 02:04:58;;;;;;;1.27;0.50;;;22.80;59.80;;;;;;5030145;28;20045;-61
2022/07/02 02:07:23;;;;;;;1.85;0.80;;;22.80;59.80;;;;;;5032131;28;20042;-61
2022/07/02 02:09:49;;;;;;;1.95;0.73;;;22.80;59.80;;;;;;5031064;28;20528;-61
2022/07/02 02:12:15;;;;;;;1.30;0.70;;;22.70;59.80;;;;;;5031499;28;20119;-61
2022/07/02 02:14:40;;;;;;;2.58;0.65;;;22.70;59.90;;;;;;5031533;28;20044;-61
2022/07/02 02:17:06;;;;;;;1.20;0.50;;;22.70;59.90;;;;;;5030253;28;20389;-61
2022/07/02 02:19:31;;;;;;;2.15;0.60;;;22.70;60.00;;;;;;5032195;28;20092;-61
2022/07/02 02:21:57;;;;;;;1.63;0.68;;;22.70;60.00;;;;;;5030959;28;20139;-61
2022/07/02 02:24:23;;;;;;;2.63;0.88;;;22.70;60.00;;;;;;5033677;28;20083;-61
2022/07/02 02:26:49;;;;;;;1.95;0.70;;;22.70;60.00;;;;;;5034036;28;20053;-60
2022/07/02 02:29:15;;;;;;;0.68;0.60;;;22.70;60.00;;;;;;5034970;28;20108;-61
2022/07/02 02:31:41;;;;;;;1.90;0.60;;;22.70;60.10;;;;;;5035485;28;20041;-61
2022/07/02 02:34:06;;;;;;;2.28;0.55;;;22.70;60.10;;;;;;5035797;28;20045;-60
2022/07/02 02:36:32;;;;;;;1.50;0.70;;;22.70;60.10;;;;;;5035155;28;20456;-61
2022/07/02 02:38:58;;;;;;;2.05;0.70;;;22.70;60.20;;;;;;5035264;28;20451;-62
2022/07/02 02:41:23;;;;;;;1.75;0.70;;;22.70;60.20;;;;;;5035224;28;20535;-61
2022/07/02 02:43:49;;;;;;;1.40;0.60;;;22.70;60.20;;;;;;5033369;28;20558;-62
2022/07/02 02:46:14;;;;;;;1.13;0.60;;;22.70;60.20;;;;;;5035773;28;20501;-62
2022/07/02 02:48:40;;;;;;;1.85;0.73;;;22.70;60.20;;;;;;5035143;28;20049;-61
2022/07/02 02:51:06;;;;;;;2.08;0.70;;;22.70;60.20;;;;;;5034899;28;20080;-61
2022/07/02 02:53:32;;;;;;;1.45;0.60;;;22.70;60.30;;;;;;5035432;28;20118;-61
2022/07/02 02:55:59;;;;;;;1.33;0.50;;;22.60;60.30;;;;;;5034060;28;20117;-61
2022/07/02 02:58:25;;;;;;;0.90;0.60;;;22.60;60.20;;;;;;5034255;28;20451;-60
2022/07/02 03:00:51;;;;;;;1.48;0.60;;;22.60;60.30;;;;;;5034768;28;20034;-61
2022/07/02 03:03:16;;;;;;;1.02;0.40;;;22.60;60.30;;;;;;5033703;28;20049;-61
2022/07/02 03:05:42;;;;;;;0.90;0.60;;;22.60;60.30;;;;;;5034264;28;20080;-61
2022/07/02 03:08:10;;;;;;;1.85;0.60;;;22.60;60.30;;;;;;5035277;28;20048;-61
2022/07/02 03:10:35;;;;;;;1.23;0.60;;;22.60;60.30;;;;;;5035191;28;20041;-62
2022/07/02 03:13:01;;;;;;;1.63;0.60;;;22.60;60.40;;;;;;5033658;28;20397;-61
2022/07/02 03:15:26;;;;;;;1.58;0.68;;;22.60;60.40;;;;;;5035138;28;20045;-60
2022/07/02 03:17:52;;;;;;;1.10;0.50;;;22.60;60.40;;;;;;5034535;28;20041;-61
2022/07/02 03:20:17;;;;;;;0.82;0.57;;;22.60;60.50;;;;;;5034221;28;20515;-61
2022/07/02 03:22:43;;;;;;;1.98;0.60;;;22.60;60.50;;;;;;5034452;28;20458;-61
2022/07/02 03:25:09;;;;;;;0.95;0.57;;;22.60;60.50;;;;;;5034876;28;20125;-61
2022/07/02 03:27:35;;;;;;;1.77;0.80;;;22.60;60.50;;;;;;5033744;28;20301;-62
2022/07/02 03:30:01;;;;;;;1.00;0.60;;;22.60;60.50;;;;;;5034619;28;20136;-60
2022/07/02 03:32:29;;;;;;;1.70;0.68;;;22.60;60.50;;;;;;5033631;28;20112;-61
2022/07/02 03:35:06;;;;;;;0.83;0.50;;;22.60;60.50;;;;;;5034267;28;20408;-62
2022/07/02 03:37:37;;;;;;;2.00;0.50;;;22.50;60.50;;;;;;5034032;28;20056;-62
2022/07/02 03:40:03;;;;;;;;;;;22.50;60.50;;;;;;5032534;28;20056;-62
2022/07/02 03:42:28;;;;;;;1.73;0.70;;;22.50;60.40;;;;;;5034064;28;19921;-63
2022/07/02 03:44:55;;;;;;;1.42;0.50;;;22.50;60.50;;;;;;5034051;28;20054;-62
2022/07/02 03:47:26;;;;;;;2.05;0.70;;;22.50;60.50;;;;;;5033916;28;20041;-62
2022/07/02 03:49:51;;;;;;;1.35;0.60;;;22.50;60.50;;;;;;5034272;28;20049;-61
2022/07/02 03:52:17;;;;;;;1.08;0.57;;;22.50;60.50;;;;;;5034200;28;20093;-62
2022/07/02 03:54:43;;;;;;;2.58;0.80;;;22.50;60.50;;;;;;5033281;28;20397;-61
2022/07/02 03:57:08;;;;;;;1.05;0.55;;;22.50;60.60;;;;;;5033811;28;20103;-60
2022/07/02 03:59:34;;;;;;;1.10;0.60;;;22.50;60.60;;;;;;5034033;28;20038;-61
2022/07/02 04:01:59;;;;;;;1.02;0.55;;;22.50;60.60;;;;;;5032421;28;20057;-61
2022/07/02 04:04:25;;;;;;;2.15;0.63;;;22.50;60.50;;;;;;5033809;28;20509;-61
2022/07/02 04:06:50;;;;;;;1.52;0.65;;;22.50;60.50;;;;;;5032904;28;20413;-62
2022/07/02 04:09:16;;;;;;;1.10;0.63;;;22.50;60.50;;;;;;5032068;28;20041;-61
2022/07/02 04:11:42;;;;;;;1.40;0.50;;;22.50;60.50;;;;;;5032167;28;20136;-61
2022/07/02 04:14:08;;;;;;;1.73;0.80;;;22.50;60.40;;;;;;5033596;28;20056;-61
2022/07/02 04:16:33;;;;;;;1.92;0.70;;;22.50;60.40;;;;;;5033056;28;20041;-61
2022/07/02 04:18:59;;;;;;;1.65;0.50;;;22.50;60.40;;;;;;5033529;28;20049;-61
2022/07/02 04:21:24;;;;;;;1.55;0.75;;;22.50;60.50;;;;;;5033774;28;20038;-61
2022/07/02 04:23:50;;;;;;;1.30;0.65;;;22.50;60.50;;;;;;5032603;28;20087;-62
2022/07/02 04:26:16;;;;;;;1.15;0.50;;;22.50;60.50;;;;;;5033308;28;20192;-61
2022/07/02 04:28:41;;;;;;;2.28;0.50;;;22.60;60.60;;;;;;5032485;28;20049;-61
2022/07/02 04:31:07;;;;;;;0.70;0.52;;;22.50;60.60;;;;;;5033756;28;20077;-60
2022/07/02 04:33:32;;;;;;;0.65;0.47;;;22.50;60.60;;;;;;5033674;28;20049;-60
2022/07/02 04:35:58;;;;;;;2.75;0.90;;;22.50;60.60;;;;;;5031972;28;20048;-61
2022/07/02 04:38:24;;;;;;;2.40;0.60;;;22.60;60.60;;;;;;5033412;28;20099;-61
2022/07/02 04:40:49;;;;;;;1.20;0.60;;;22.60;60.60;;;;;;5033022;28;20440;-60
2022/07/02 04:43:15;;;;;;;1.85;0.60;;;22.60;60.60;;;;;;5031794;28;20128;-61
2022/07/02 04:45:40;;;;;;;0.82;0.50;;;22.60;60.60;;;;;;5032592;28;20041;-61
2022/07/02 04:48:07;;;;;;;1.27;0.60;;;22.60;60.60;;;;;;5032913;28;20051;-61
2022/07/02 04:50:33;;;;;;;1.35;0.60;;;22.60;60.60;;;;;;5032458;28;20099;-61
2022/07/02 04:52:58;;;;;;;0.88;0.40;;;22.60;60.60;;;;;;5032983;28;20045;-61
2022/07/02 04:55:24;;;;;;;0.80;0.60;;;22.60;60.60;;;;;;5033252;28;20045;-61
2022/07/02 04:57:49;;;;;;;1.85;0.65;;;22.60;60.60;;;;;;5031806;28;20049;-61
2022/07/02 05:00:15;;;;;;;1.63;0.60;;;22.70;60.60;;;;;;5033137;28;20099;-61
2022/07/02 05:02:41;;;;;;;0.77;0.50;;;22.70;60.70;;;;;;5032707;28;20128;-61
2022/07/02 05:05:06;;;;;;;1.20;0.60;;;22.70;60.70;;;;;;5032073;28;20106;-62
2022/07/02 05:07:32;;;;;;;1.27;0.60;;;22.70;60.70;;;;;;5032696;28;20409;-62
2022/07/02 05:09:58;;;;;;;0.85;0.60;;;22.70;60.70;;;;;;5032646;28;20053;-62
2022/07/02 05:12:24;;;;;;;1.17;0.70;;;22.70;60.70;;;;;;5031393;28;20042;-61
2022/07/02 05:14:50;;;;;;;1.15;0.55;;;22.70;60.70;;;;;;5032769;28;20056;-61
2022/07/02 05:17:15;;;;;;;1.02;0.60;;;22.70;60.70;;;;;;5032580;28;20037;-61
2022/07/02 05:19:41;;;;;;;1.27;0.60;;;22.70;60.70;;;;;;5031863;28;20124;-61
2022/07/02 05:22:06;;;;;;;0.90;0.80;;;22.70;60.70;;;;;;5032295;28;20153;-61
2022/07/02 05:24:32;;;;;;;0.90;0.50;;;22.80;60.80;;;;;;5032510;28;20077;-61
2022/07/02 05:26:57;;;;;;;1.52;0.63;;;22.80;60.80;;;;;;5031241;28;20057;-61
2022/07/02 05:29:23;;;;;;;1.48;0.50;;;22.80;60.70;;;;;;5031998;28;20052;-61
2022/07/02 05:31:48;;;;;;;1.23;0.68;;;22.80;60.70;;;;;;5032005;28;20050;-61
2022/07/02 05:34:14;;;;;;;2.00;0.60;;;22.80;60.60;;;;;;5031947;28;20055;-61
2022/07/02 05:36:39;;;;;;;1.45;0.50;;;22.80;60.70;;;;;;5032331;28;20552;-61
2022/07/02 05:39:05;;;;;;;1.40;0.60;;;22.80;60.60;;;;;;5031785;28;20114;-61
2022/07/02 05:41:31;;;;;;;1.42;0.63;;;22.80;60.70;;;;;;5032283;28;20482;-61
2022/07/02 05:43:56;;;;;;;1.10;0.65;;;22.80;60.60;;;;;;5031945;28;20037;-62
2022/07/02 05:46:22;;;;;;;1.02;0.63;;;22.80;60.60;;;;;;5031527;28;20053;-62
2022/07/02 05:48:47;;;;;;;1.10;0.60;;;22.90;60.60;;;;;;5032380;28;20038;-62
2022/07/02 05:51:13;;;;;;;1.17;0.60;;;22.90;60.60;;;;;;5032484;28;20519;-60
2022/07/02 05:53:38;;;;;;;0.82;0.60;;;22.90;60.60;;;;;;5031400;28;20053;-62
2022/07/02 05:56:04;;;;;;;1.35;0.70;;;22.90;60.60;;;;;;5031889;28;20443;-63
2022/07/02 05:58:30;;;;;;;1.83;0.60;;;22.90;60.60;;;;;;5033614;28;20045;-61
2022/07/02 06:00:55;;;;;;;0.95;0.50;;;22.90;60.60;;;;;;5035536;28;20417;-61
2022/07/02 06:03:21;;;;;;;1.50;0.75;;;22.90;60.60;;;;;;5036442;28;20030;-61
2022/07/02 06:08:30;;;;;;;1.08;0.65;;;22.90;60.70;;;;;;5035585;28;20049;-61
2022/07/02 06:10:56;;;;;;;1.25;0.60;;;23.00;60.80;;;;;;5035396;28;20386;-62
2022/07/02 06:13:22;;;;;;;0.98;0.50;;;23.00;60.80;;;;;;5036116;28;20049;-62
2022/07/02 06:15:47;;;;;;;1.05;0.60;;;23.00;60.70;;;;;;5035276;28;20041;-60
2022/07/02 06:18:13;;;;;;;2.28;0.63;;;22.90;60.70;;;;;;5036088;28;20505;-60
2022/07/02 06:20:39;;;;;;;1.70;0.70;;;23.00;60.70;;;;;;5035614;28;20505;-62
2022/07/02 06:23:04;;;;;;;1.20;0.50;;;22.90;60.60;;;;;;5034833;28;20489;-60
2022/07/02 06:25:30;;;;;;;2.00;0.70;;;23.00;60.60;;;;;;5035418;28;20049;-61
2022/07/02 06:27:55;;;;;;;3.60;0.70;;;23.00;60.70;;;;;;5034719;28;20504;-62
2022/07/02 06:30:23;;;;;;;2.67;0.80;;;23.00;60.90;;;;;;5035200;28;20041;-62
2022/07/02 06:32:48;;;;;;;3.40;0.70;;;23.00;61.00;;;;;;5034309;28;20481;-61
2022/07/02 06:35:14;;;;;;;2.50;0.85;;;23.00;60.90;;;;;;5035135;28;20047;-60
2022/07/02 06:37:40;;;;;;;2.20;0.80;;;23.00;60.80;;;;;;5035278;28;20071;-61
2022/07/02 06:40:06;;;;;;;2.30;0.70;;;23.00;60.90;;;;;;5035319;28;20045;-61
2022/07/02 06:42:31;;;;;;;1.95;1.05;;;23.00;60.90;;;;;;5034312;28;20497;-62
2022/07/02 06:44:57;;;;;;;1.40;0.60;;;23.00;60.80;;;;;;5035443;28;20056;-60
2022/07/02 06:47:23;;;;;;;1.02;0.55;;;23.00;61.00;;;;;;5032827;28;20037;-61
2022/07/02 06:49:49;;;;;;;3.03;0.70;;;23.00;61.00;;;;;;5034007;28;20087;-61
2022/07/02 06:52:15;;;;;;;1.20;0.60;;;23.00;61.00;;;;;;5035287;28;20041;-61
2022/07/02 06:54:40;;;;;;;2.17;0.68;;;23.00;61.00;;;;;;5033459;28;20064;-61
2022/07/02 06:57:06;;;;;;;3.38;0.70;;;23.00;61.00;;;;;;5033520;28;20041;-59
2022/07/02 06:59:32;;;;;;;4.35;0.95;;;23.00;61.00;;;;;;5034925;28;20094;-62
2022/07/02 07:01:57;;;;;;;2.38;0.80;;;23.00;61.00;;;;;;5034595;28;20112;-61
2022/07/02 07:04:23;;;;;;;2.83;0.65;;;23.00;61.10;;;;;;5034566;28;20493;-61
2022/07/02 07:06:52;;;;;;;4.15;0.80;;;23.00;61.10;;;;;;5034829;28;20393;-61
2022/07/02 07:09:18;;;;;;;4.18;0.70;;;23.00;61.20;;;;;;5033461;28;20033;-62
2022/07/02 07:11:43;;;;;;;1.98;0.70;;;23.00;61.20;;;;;;5033500;28;20389;-62
2022/07/02 07:14:09;;;;;;;3.00;0.73;;;23.00;61.20;;;;;;5034445;28;20050;-61
2022/07/02 07:16:34;;;;;;;2.00;0.80;;;23.00;61.20;;;;;;5034729;28;20424;-60
2022/07/02 07:19:04;;;;;;;2.03;0.80;;;22.90;61.10;;;;;;5032433;28;20057;-62
2022/07/02 07:21:30;;;;;;;3.50;0.85;;;23.00;61.20;;;;;;5034748;28;20071;-60
2022/07/02 07:23:56;;;;;;;1.75;0.73;;;23.00;61.20;;;;;;5034076;28;20501;-61
2022/07/02 07:26:22;;;;;;;2.38;0.70;;;23.00;61.20;;;;;;5033781;28;20144;-61
2022/07/02 07:28:47;;;;;;;2.97;0.75;;;23.00;61.30;;;;;;5034409;28;20048;-62
2022/07/02 07:31:13;;;;;;;4.28;0.80;;;23.00;61.20;;;;;;5034655;28;20045;-63
2022/07/02 07:33:39;;;;;;;1.35;0.60;;;23.00;61.20;;;;;;5033809;28;20041;-59
2022/07/02 07:36:05;;;;;;;1.90;0.70;;;23.00;61.20;;;;;;5034703;28;20038;-60
2022/07/02 07:38:30;;;;;;;1.48;0.55;;;23.00;61.30;;;;;;5032495;28;20120;-61
2022/07/02 07:40:56;;;;;;;2.22;0.85;;;23.00;61.20;;;;;;5034049;28;20519;-60
2022/07/02 07:43:21;;;;;;;1.85;0.60;;;23.00;61.20;;;;;;5033911;28;20445;-60
2022/07/02 07:45:47;;;;;;;3.60;0.80;;;23.00;61.10;;;;;;5033328;28;20754;-60
2022/07/02 07:48:15;;;;;;;2.95;0.60;;;23.00;61.00;;;;;;5034624;28;20041;-63
2022/07/02 07:50:41;;;;;;;2.38;0.52;;;23.00;61.00;;;;;;5033059;28;20156;-62
2022/07/02 07:53:06;;;;;;;1.63;0.55;;;23.00;61.00;;;;;;5032596;28;20061;-60
2022/07/02 07:55:32;;;;;;;1.98;0.80;;;23.00;61.00;;;;;;5034383;28;20094;-62
2022/07/02 07:57:58;;;;;;;4.47;0.70;;;23.00;61.00;;;;;;5033970;28;20046;-63
2022/07/02 08:00:23;;;;;;;2.20;0.68;;;23.00;61.00;;;;;;5033220;28;20057;-63
2022/07/02 08:02:49;;;;;;;3.72;0.73;;;23.00;61.00;;;;;;5032324;28;20393;-61
2022/07/02 08:05:15;;;;;;;1.88;0.80;;;23.00;61.00;;;;;;5033290;28;20037;-63
2022/07/02 08:07:41;;;;;;;1.42;0.68;;;23.00;60.90;;;;;;5031326;28;20049;-60
2022/07/02 08:10:07;;;;;;;2.95;0.70;;;23.00;60.90;;;;;;5033947;28;20052;-60
2022/07/02 08:12:33;;;;;;;3.15;0.80;;;23.00;60.80;;;;;;5032649;28;20067;-60
2022/07/02 08:15:02;;;;;;;2.28;0.70;;;23.00;60.80;;;;;;5033052;28;20171;-60
2022/07/02 08:17:29;;;;;;;2.80;0.80;;;23.00;60.70;;;;;;5033549;28;20045;-60
2022/07/02 08:19:55;;;;;;;2.40;0.80;;;23.00;60.60;;;;;;5033657;28;20073;-61
2022/07/02 08:22:21;;;;;;;2.28;0.60;;;23.00;60.60;;;;;;5032931;28;20140;-61
2022/07/02 08:24:46;;;;;;;2.60;0.60;;;23.00;60.50;;;;;;5033474;28;20476;-61
2022/07/02 08:27:12;;;;;;;1.70;0.60;;;23.00;60.40;;;;;;5033320;28;20049;-61
2022/07/02 08:29:37;;;;;;;2.50;0.60;;;23.00;60.20;;;;;;5032609;28;20049;-61
2022/07/02 08:32:06;;;;;;;3.38;0.70;;;23.00;60.20;;;;;;5033296;28;20069;-61
2022/07/02 08:34:32;;;;;;;2.83;0.65;;;23.00;60.20;;;;;;5033521;28;20044;-61
2022/07/02 08:36:58;;;;;;;1.75;0.55;;;23.00;60.10;;;;;;5032155;28;20045;-62
2022/07/02 08:39:23;;;;;;;2.88;0.60;;;23.00;60.00;;;;;;5033267;28;20504;-62
2022/07/02 08:41:49;;;;;;;1.77;0.70;;;23.00;60.00;;;;;;5032214;28;20081;-66
2022/07/02 08:44:15;;;;;;;4.70;0.70;;;23.00;59.80;;;;;;5033477;28;20041;-62
2022/07/02 08:46:41;;;;;;;2.30;0.73;;;23.00;59.20;;;;;;5032455;28;20069;-63
2022/07/02 08:49:07;;;;;;;5.35;0.80;;;22.90;58.70;;;;;;5030714;28;20069;-62
2022/07/02 08:51:32;;;;;;;2.33;0.80;;;22.90;58.20;;;;;;5031646;28;20049;-62
2022/07/02 08:53:59;;;;;;;1.70;0.50;;;23.00;57.90;;;;;;5031114;28;20103;-63
2022/07/02 08:56:25;;;;;;;5.13;0.95;;;22.90;57.30;;;;;;5031358;28;20041;-62
2022/07/02 08:58:50;;;;;;;4.40;0.60;;;22.90;56.70;;;;;;5031377;28;20115;-63
2022/07/02 09:01:16;;;;;;;1.95;0.55;;;22.90;56.30;;;;;;5031796;28;20056;-63
2022/07/02 09:03:41;;;;;;;2.45;0.50;;;22.90;56.20;;;;;;5030760;28;20132;-63
2022/07/02 09:06:07;;;;;;;3.33;0.90;;;22.90;55.50;;;;;;5015473;28;20038;-64
2022/07/02 09:08:33;;;;;;;2.10;0.70;;;22.90;55.10;;;;;;5031881;28;20082;-62
2022/07/02 09:10:59;;;;;;;2.83;0.55;;;22.90;54.80;;;;;;5032087;28;20485;-62
2022/07/02 09:13:24;;;;;;;3.35;0.57;;;22.90;54.80;;;;;;5014412;28;20046;-62
2022/07/02 09:15:51;;;;;;;2.42;0.50;;;22.90;54.50;;;;;;5031209;28;20049;-63
2022/07/02 09:18:18;;;;;;;0.65;0.40;;;22.90;54.40;;;;;;5030599;28;20033;-63
2022/07/02 09:20:43;;;;;;;1.80;0.50;;;22.90;54.40;;;;;;5032559;28;20096;-62
2022/07/02 09:23:10;;;;;;;3.47;0.70;;;22.90;54.10;;;;;;5031157;28;20045;-63
2022/07/02 09:25:36;;;;;;;2.33;0.60;;;22.90;53.70;;;;;;5031556;28;20489;-62
2022/07/02 09:28:03;;;;;;;4.20;0.70;;;22.80;53.30;;;;;;5032402;28;20053;-63
2022/07/02 09:30:30;;;;;;;1.20;0.50;;;22.80;53.00;;;;;;5064791;28;20045;-63
2022/07/02 09:35:40;;;;;;;3.13;0.82;;;22.80;53.00;;;;;;5032441;28;20045;-61
2022/07/02 09:38:09;;;;;;;2.72;0.82;;;22.80;52.80;;;;;;5031486;28;20371;-61
2022/07/02 09:40:35;;;;;;;3.55;0.60;;;22.80;52.60;;;;;;5032060;28;20038;-62
2022/07/02 09:43:00;;;;;;;1.15;0.50;;;22.80;52.60;;;;;;5032224;28;20049;-62
2022/07/02 09:45:26;;;;;;;2.85;0.80;;;22.80;52.50;;;;;;5031545;28;20052;-63
2022/07/02 09:47:53;;;;;;;3.25;0.80;;;22.80;52.50;;;;;;5031765;28;20041;-62
2022/07/02 09:50:19;;;;;;;2.97;1.00;;;22.90;52.60;;;;;;5031910;28;20516;-62
2022/07/02 09:52:53;;;;;;;4.68;1.05;;;22.90;52.50;;;;;;5031030;28;20120;-62
2022/07/02 09:55:26;;;;;;;3.22;0.75;;;22.90;52.40;;;;;;5032280;28;20050;-63
2022/07/02 09:57:59;;;;;;;5.32;0.90;;;22.90;52.50;;;;;;5031739;28;20044;-62
2022/07/02 10:00:30;;;;;;;3.08;0.70;;;22.90;52.50;;;;;;5031516;28;20049;-62
2022/07/02 10:02:57;;;;;;;3.35;0.60;;;22.90;52.50;;;;;;5031629;28;20095;-62
2022/07/02 10:05:33;;;;;;;3.95;0.73;;;22.90;52.50;;;;;;5032105;28;20045;-62
2022/07/02 10:07:59;;;;;;;2.70;0.75;;;22.90;52.40;;;;;;5030492;28;20064;-63
2022/07/02 10:10:38;;;;;;;2.90;0.60;;;22.90;52.40;;;;;;5032128;28;20077;-63
2022/07/02 10:13:07;;;;;;;3.28;0.60;;;22.90;52.30;;;;;;5031859;28;20037;-63
2022/07/02 10:15:36;;;;;;;1.83;0.70;;;22.90;52.40;;;;;;5031522;28;20528;-62
2022/07/02 10:18:02;;;;;;;3.22;0.70;;;22.90;52.30;;;;;;5032113;28;20045;-63
2022/07/02 10:20:29;;;;;;;1.75;0.70;;;22.90;52.30;;;;;;5029822;28;20056;-63
2022/07/02 10:22:56;;;;;;;3.45;0.70;;;22.90;52.10;;;;;;5031635;28;20042;-61
2022/07/02 10:25:22;;;;;;;1.87;0.60;;;22.90;52.10;;;;;;5030964;28;20053;-62
2022/07/02 10:27:47;;;;;;;5.32;1.10;;;22.90;52.10;;;;;;5029932;28;20472;-62
2022/07/02 10:30:16;;;;;;;4.57;1.05;;;23.00;52.20;;;;;;5031834;28;20099;-63
2022/07/02 10:32:54;;;;;;;2.08;0.55;;;23.00;52.20;;;;;;5031237;28;20060;-63
2022/07/02 10:35:22;;;;;;;3.05;0.80;;;23.00;52.00;;;;;;5031187;28;20370;-62
2022/07/02 10:37:47;;;;;;;2.90;1.03;;;23.00;51.80;;;;;;5030401;28;20049;-62
2022/07/02 10:40:19;;;;;;;4.35;1.10;;;23.00;51.90;;;;;;5031267;28;20401;-62
2022/07/02 10:42:48;;;;;;;2.67;0.80;;;23.00;51.90;;;;;;5030514;28;20068;-62
2022/07/02 10:45:20;;;;;;;6.13;0.80;;;23.00;51.90;;;;;;5033166;28;20052;-62
2022/07/02 10:48:04;;;;;;;2.95;0.80;;;23.00;52.00;;;;;;5034834;28;20046;-62
2022/07/02 10:50:39;;;;;;;4.00;0.75;;;23.00;52.00;;;;;;5033985;28;20096;-62
2022/07/02 10:53:17;;;;;;;3.83;1.00;;;23.00;52.20;;;;;;5033398;28;20034;-63
2022/07/02 10:55:43;;;;;;;;;;;23.10;52.20;;;;;;5034239;28;20830;-63
2022/07/02 10:58:16;;;;;;;4.03;0.90;;;23.00;52.30;;;;;;5033326;28;19921;-62
2022/07/02 11:00:42;;;;;;;2.58;0.77;;;23.00;52.40;;;;;;5034352;28;20046;-62
2022/07/02 11:03:12;;;;;;;4.45;0.90;;;23.00;52.20;;;;;;5032807;28;20072;-62
2022/07/02 11:05:54;;;;;;;6.10;1.52;;;23.00;52.10;;;;;;5035092;28;20041;-62
2022/07/02 11:08:49;;;;;;;4.13;1.15;;;23.00;52.30;;;;;;5035797;28;20061;-61
2022/07/02 11:11:22;;;;;;;3.75;1.30;;;23.10;52.50;;;;;;5034216;28;20382;-61
2022/07/02 11:14:01;;;;;;;6.32;1.05;;;23.10;52.30;;;;;;5034680;28;20048;-62
2022/07/02 11:16:37;;;;;;;4.50;1.23;;;23.10;52.50;;;;;;5035010;28;20135;-62
2022/07/02 11:19:02;;;;;;;3.22;0.77;;;23.10;52.60;;;;;;5034421;28;20048;-62
2022/07/02 11:21:29;;;;;;;3.80;0.80;;;23.10;52.70;;;;;;5034423;28;20042;-62
2022/07/02 11:23:54;;;;;;;2.63;0.63;;;23.10;52.50;;;;;;5033898;28;20132;-62
2022/07/02 11:26:26;;;;;;;2.88;0.70;;;23.10;51.80;;;;;;5034554;28;20075;-62
2022/07/02 11:28:52;;;;;;;3.53;0.70;;;23.10;51.20;;;;;;5033794;28;20477;-61
2022/07/02 11:31:19;;;;;;;5.80;0.90;;;23.10;50.70;;;;;;5031718;28;20099;-61
2022/07/02 11:33:53;;;;;;;3.35;0.90;;;23.10;50.80;;;;;;5033385;28;20076;-61
2022/07/02 11:36:19;;;;;;;6.10;1.33;;;23.10;50.90;;;;;;5033475;28;20038;-61
2022/07/02 11:38:45;;;;;;;3.30;0.70;;;23.10;51.10;;;;;;5030735;28;20092;-61
2022/07/02 11:41:17;;;;;;;1.38;0.50;;;23.10;51.20;;;;;;5032464;28;20095;-61
2022/07/02 11:43:44;;;;;;;3.08;0.57;;;23.20;51.30;;;;;;5032717;28;20489;-60
2022/07/02 11:46:11;;;;;;;3.07;0.80;;;23.20;51.20;;;;;;5032594;28;20232;-61
2022/07/02 11:48:37;;;;;;;5.32;1.00;;;23.20;51.30;;;;;;5033481;28;20120;-59
2022/07/02 11:51:03;;;;;;;3.75;1.10;;;23.20;51.50;;;;;;5033249;28;20120;-61
2022/07/02 11:53:28;;;;;;;6.65;1.65;;;23.20;51.60;;;;;;5032514;28;20033;-61
2022/07/02 11:56:06;;;;;;;6.45;1.45;;;23.20;51.70;;;;;;5032725;28;20421;-60
2022/07/02 11:58:40;;;;;;;6.80;1.90;;;23.30;51.80;;;;;;5032967;28;20037;-61
2022/07/02 12:01:15;;;;;;;8.27;1.80;;;23.30;51.70;;;;;;5032949;28;20520;-60
2022/07/02 12:03:45;;;;;;;7.82;1.52;;;23.30;51.80;;;;;;5031454;28;20458;-60
2022/07/02 12:06:10;;;;;;;14.63;2.28;;;23.30;51.90;;;;;;5032742;28;20041;-60
2022/07/02 12:08:36;;;;;;;7.40;1.50;;;23.30;51.90;;;;;;5031702;28;20049;-60
2022/07/02 12:11:13;;;;;;;9.05;1.92;;;23.30;51.90;;;;;;5033192;28;20136;-60
2022/07/02 12:13:39;;;;;;;10.00;1.90;;;23.30;52.10;;;;;;5031661;28;20041;-60
2022/07/02 12:16:04;;;;;;;10.73;2.22;;;23.30;52.10;;;;;;5033423;28;20048;-61
2022/07/02 12:18:30;;;;;;;9.10;1.60;;;23.30;52.40;;;;;;5033188;28;20042;-60
2022/07/02 12:20:55;;;;;;;5.95;1.80;;;23.40;52.70;;;;;;5030780;28;20037;-62
2022/07/02 12:23:21;;;;;;;9.75;1.92;;;23.40;52.90;;;;;;5031835;28;20046;-61
2022/07/02 12:25:48;;;;;;;8.07;1.67;;;23.40;53.20;;;;;;5031247;28;20056;-61
2022/07/02 12:31:01;;;;;;;7.47;1.52;;;23.40;53.40;;;;;;5032106;28;20438;-60
2022/07/02 12:33:33;;;;;;;6.82;1.55;;;23.50;53.50;;;;;;5032875;28;20137;-60
2022/07/02 12:36:05;;;;;;;7.22;2.15;;;23.50;53.70;;;;;;5031062;28;20505;-61
2022/07/02 12:38:43;;;;;;;6.25;1.38;;;23.50;53.80;;;;;;5032748;28;20037;-60
2022/07/02 12:41:09;;;;;;;6.13;1.50;;;23.50;53.90;;;;;;5031707;28;20053;-60
2022/07/02 12:43:34;;;;;;;6.95;1.70;;;23.50;53.90;;;;;;5031601;28;20038;-60
2022/07/02 12:46:07;;;;;;;6.28;1.58;;;23.60;54.00;;;;;;5032636;28;20111;-60
2022/07/02 12:48:42;;;;;;;6.78;1.58;;;23.50;54.00;;;;;;5032136;28;20095;-60
2022/07/02 12:51:11;;;;;;;4.85;1.40;;;23.60;54.20;;;;;;5032796;28;20041;-61
2022/07/02 12:53:37;;;;;;;7.13;1.67;;;23.50;54.10;;;;;;5032366;28;20485;-61
2022/07/02 12:56:04;;;;;;;6.75;1.70;;;23.60;54.20;;;;;;5030322;28;20044;-61